Time;durP1;ratioP1;P1;durP2;ratioP2;P2;SDS_P1;SDS_P2;PMS_P1;PMS_P2;Temp;Humidity;BMP_temperature;BMP_pressure;BME280_temperature;BME280_humidity;BME280_pressure;Samples;Min_cycle;Max_cycle;Signal;HPM_P1;HPM_P2
2024/01/24 00:00:30;;;;;;;21.63;15.88;;;11.40;99.90;;;;;;5084629;28;20041;-80
2024/01/24 00:02:56;;;;;;;19.33;14.88;;;11.50;99.90;;;;;;5085807;28;20692;-79
2024/01/24 00:05:22;;;;;;;22.20;15.65;;;11.50;99.90;;;;;;5077277;28;20045;-79
2024/01/24 00:07:47;;;;;;;28.25;14.48;;;11.50;99.90;;;;;;5080711;28;20414;-79
2024/01/24 00:10:13;;;;;;;22.42;14.85;;;11.50;99.90;;;;;;5084614;28;20050;-79
2024/01/24 00:12:38;;;;;;;18.50;13.48;;;11.60;99.90;;;;;;5084572;28;20048;-79
2024/01/24 00:15:05;;;;;;;20.67;14.05;;;11.50;99.90;;;;;;5085298;28;20043;-78
2024/01/24 00:17:30;;;;;;;24.05;13.48;;;11.60;99.90;;;;;;5087558;28;20485;-79
2024/01/24 00:19:56;;;;;;;16.60;11.93;;;11.60;99.90;;;;;;5089121;28;20048;-78
2024/01/24 00:22:22;;;;;;;29.40;14.13;;;11.50;99.90;;;;;;5082510;28;20486;-79
2024/01/24 00:24:47;;;;;;;22.70;13.77;;;11.60;99.90;;;;;;5086746;28;20048;-79
2024/01/24 00:27:13;;;;;;;22.60;13.95;;;11.60;99.90;;;;;;5078911;28;20051;-78
2024/01/24 00:29:39;;;;;;;19.52;13.68;;;11.60;99.90;;;;;;5089715;28;20119;-78
2024/01/24 00:32:05;;;;;;;25.45;14.05;;;11.70;99.90;;;;;;5090630;28;20055;-79
2024/01/24 00:34:30;;;;;;;21.35;14.07;;;11.70;99.90;;;;;;5089128;28;20044;-77
2024/01/24 00:36:59;;;;;;;22.20;14.50;;;11.70;99.90;;;;;;5090926;28;20037;-78
2024/01/24 00:39:25;;;;;;;21.05;13.43;;;11.70;99.90;;;;;;5075581;28;20055;-79
2024/01/24 00:41:52;;;;;;;23.77;13.65;;;11.80;99.90;;;;;;5097150;28;20112;-78
2024/01/24 00:44:17;;;;;;;22.20;12.57;;;11.70;99.90;;;;;;5080591;28;20051;-78
2024/01/24 00:46:43;;;;;;;23.33;12.88;;;11.80;99.90;;;;;;5083359;28;20044;-78
2024/01/24 00:49:10;;;;;;;18.17;11.40;;;11.80;99.90;;;;;;5089243;28;20074;-78
2024/01/24 00:51:36;;;;;;;20.75;12.30;;;11.80;99.90;;;;;;5090016;28;20680;-78
2024/01/24 00:54:03;;;;;;;24.40;13.25;;;11.80;99.90;;;;;;5087291;28;20048;-79
2024/01/24 00:56:29;;;;;;;25.55;12.52;;;11.80;99.90;;;;;;5076974;28;20143;-78
2024/01/24 00:58:55;;;;;;;19.92;12.05;;;11.80;99.90;;;;;;5088160;28;20459;-79
2024/01/24 01:01:20;;;;;;;19.95;10.85;;;11.80;99.90;;;;;;5078979;28;20116;-79
2024/01/24 01:03:46;;;;;;;16.17;11.02;;;11.80;99.90;;;;;;5082084;28;20044;-78
2024/01/24 01:06:12;;;;;;;20.98;11.18;;;11.90;99.90;;;;;;5088239;28;20078;-78
2024/01/24 01:08:37;;;;;;;21.35;11.15;;;11.90;99.90;;;;;;5083799;28;20387;-78
2024/01/24 01:11:05;;;;;;;21.75;10.90;;;11.80;99.90;;;;;;5085052;28;20083;-79
2024/01/24 01:13:33;;;;;;;14.75;9.88;;;11.80;99.90;;;;;;5082011;28;20059;-78
2024/01/24 01:15:58;;;;;;;13.30;10.63;;;11.90;99.90;;;;;;5089289;28;20089;-78
2024/01/24 01:18:24;;;;;;;14.80;9.43;;;11.90;99.90;;;;;;5088458;28;20043;-79
2024/01/24 01:20:49;;;;;;;16.95;9.38;;;11.90;99.90;;;;;;5082073;28;20058;-79
2024/01/24 01:23:15;;;;;;;21.13;9.38;;;11.90;99.90;;;;;;5088202;28;20052;-79
2024/01/24 01:25:42;;;;;;;16.20;9.82;;;12.00;99.90;;;;;;5088006;28;20382;-79
2024/01/24 01:28:07;;;;;;;18.65;9.95;;;11.90;99.90;;;;;;5074030;28;20052;-79
2024/01/24 01:30:34;;;;;;;14.60;8.18;;;11.90;99.90;;;;;;5078528;28;20048;-79
2024/01/24 01:33:00;;;;;;;20.95;9.25;;;11.90;99.90;;;;;;5074711;28;20519;-79
2024/01/24 01:35:26;;;;;;;21.45;8.30;;;11.90;99.90;;;;;;5083852;28;20071;-79
2024/01/24 01:37:51;;;;;;;9.55;7.82;;;11.90;99.90;;;;;;5085136;28;20048;-79
2024/01/24 01:40:17;;;;;;;8.57;6.38;;;11.90;99.90;;;;;;5083631;28;20384;-79
2024/01/24 01:42:46;;;;;;;12.70;6.63;;;11.90;99.90;;;;;;5088071;28;20050;-79
2024/01/24 01:45:12;;;;;;;9.27;6.38;;;12.00;99.90;;;;;;5079275;28;20071;-79
2024/01/24 01:47:39;;;;;;;7.97;5.47;;;12.00;99.90;;;;;;5085188;28;20052;-79
2024/01/24 01:50:10;;;;;;;9.20;5.55;;;12.00;99.90;;;;;;5066343;28;20041;-76
2024/01/24 01:52:40;;;;;;;10.25;5.47;;;12.00;99.90;;;;;;5083191;28;20082;-78
2024/01/24 01:55:07;;;;;;;9.80;5.28;;;12.00;99.90;;;;;;5092176;28;20040;-78
2024/01/24 01:57:33;;;;;;;16.95;5.50;;;12.00;99.90;;;;;;5087495;28;20044;-79
2024/01/24 02:00:00;;;;;;;9.13;4.35;;;12.00;99.90;;;;;;5087925;28;20117;-79
2024/01/24 02:02:26;;;;;;;13.32;5.55;;;12.00;99.90;;;;;;5088497;28;20105;-78
2024/01/24 02:04:53;;;;;;;9.00;5.43;;;12.00;99.90;;;;;;5080709;28;20489;-79
2024/01/24 02:07:18;;;;;;;11.85;5.00;;;12.00;99.90;;;;;;5083589;28;20131;-79
2024/01/24 02:09:44;;;;;;;10.60;5.78;;;12.00;99.90;;;;;;5083273;28;20055;-79
2024/01/24 02:12:10;;;;;;;12.98;5.35;;;12.00;99.90;;;;;;5085624;28;20488;-79
2024/01/24 02:14:36;;;;;;;10.32;5.57;;;12.00;99.90;;;;;;5087844;28;20127;-79
2024/01/24 02:17:01;;;;;;;7.55;5.60;;;11.90;99.90;;;;;;5087272;28;20105;-78
2024/01/24 02:19:27;;;;;;;8.80;5.10;;;11.90;99.90;;;;;;5070525;28;20097;-79
2024/01/24 02:21:53;;;;;;;10.52;5.88;;;11.80;99.90;;;;;;5085304;28;20040;-78
2024/01/24 02:24:21;;;;;;;14.18;5.15;;;11.80;99.90;;;;;;5081044;28;20071;-79
2024/01/24 02:26:47;;;;;;;13.30;4.45;;;11.90;99.90;;;;;;5085117;28;20060;-78
2024/01/24 02:29:13;;;;;;;14.70;4.88;;;11.90;99.90;;;;;;5078683;28;20913;-78
2024/01/24 02:31:39;;;;;;;16.45;4.43;;;11.90;99.90;;;;;;5086981;28;20117;-79
2024/01/24 02:34:05;;;;;;;17.88;4.25;;;11.90;99.90;;;;;;5080005;28;20497;-79
2024/01/24 02:36:30;;;;;;;9.70;3.58;;;11.90;99.90;;;;;;5087192;28;20067;-79
2024/01/24 02:38:56;;;;;;;18.10;4.68;;;11.80;99.90;;;;;;5081870;28;20370;-79
2024/01/24 02:41:23;;;;;;;18.15;4.15;;;11.80;99.90;;;;;;5084910;28;20055;-79
2024/01/24 02:43:48;;;;;;;11.25;3.50;;;11.80;99.90;;;;;;5070720;28;20063;-79
2024/01/24 02:46:14;;;;;;;23.52;4.05;;;11.80;99.90;;;;;;5080423;28;23398;-79
2024/01/24 02:48:40;;;;;;;23.65;4.90;;;11.80;99.90;;;;;;5077499;28;20056;-79
2024/01/24 02:51:06;;;;;;;13.75;4.68;;;11.70;99.90;;;;;;5073733;28;20047;-78
2024/01/24 02:53:31;;;;;;;11.85;3.47;;;11.70;99.90;;;;;;5082161;28;20064;-78
2024/01/24 02:55:57;;;;;;;12.88;4.05;;;11.60;99.90;;;;;;5076904;28;20055;-78
2024/01/24 02:58:22;;;;;;;24.05;5.00;;;11.60;99.90;;;;;;5077082;28;20603;-78
2024/01/24 03:00:48;;;;;;;17.77;4.25;;;11.50;99.90;;;;;;5076192;28;20056;-78
2024/01/24 03:03:14;;;;;;;13.40;5.03;;;11.50;99.90;;;;;;5086318;28;20059;-76
2024/01/24 03:05:41;;;;;;;18.60;5.63;;;11.40;99.90;;;;;;5076697;28;20040;-78
2024/01/24 03:08:07;;;;;;;38.55;6.75;;;11.40;99.90;;;;;;5077660;28;20054;-79
2024/01/24 03:10:32;;;;;;;23.88;6.55;;;11.30;99.90;;;;;;5086553;28;20044;-78
2024/01/24 03:12:58;;;;;;;29.77;5.78;;;11.30;99.90;;;;;;5083420;28;20044;-78
2024/01/24 03:15:25;;;;;;;29.55;5.85;;;11.20;99.90;;;;;;5085017;28;20048;-79
2024/01/24 03:17:50;;;;;;;27.98;6.90;;;11.20;99.90;;;;;;5085917;28;20044;-78
2024/01/24 03:20:16;;;;;;;34.63;7.13;;;11.10;99.90;;;;;;5084711;28;20086;-78
2024/01/24 03:22:42;;;;;;;32.78;7.05;;;11.10;99.90;;;;;;5082682;28;20111;-78
2024/01/24 03:25:08;;;;;;;38.42;7.90;;;11.00;99.90;;;;;;5081561;28;20077;-78
2024/01/24 03:27:34;;;;;;;47.20;8.93;;;11.00;99.90;;;;;;5077652;28;20066;-79
2024/01/24 03:30:00;;;;;;;34.25;6.80;;;11.00;99.90;;;;;;5078966;28;20035;-78
2024/01/24 03:32:26;;;;;;;33.47;8.40;;;11.00;99.90;;;;;;5080927;28;20051;-78
2024/01/24 03:34:56;;;;;;;37.10;8.07;;;10.90;99.90;;;;;;5085749;28;20076;-78
2024/01/24 03:37:22;;;;;;;46.10;10.05;;;10.90;99.90;;;;;;5085941;28;20455;-78
2024/01/24 03:39:48;;;;;;;45.72;8.82;;;10.90;99.90;;;;;;5082435;28;20091;-79
2024/01/24 03:42:14;;;;;;;33.97;8.13;;;10.80;99.90;;;;;;5071565;28;20047;-79
2024/01/24 03:44:39;;;;;;;56.53;9.18;;;10.80;99.90;;;;;;5073929;28;20093;-79
2024/01/24 03:47:05;;;;;;;40.80;10.02;;;10.80;99.90;;;;;;5074293;28;20040;-79
2024/01/24 03:49:31;;;;;;;33.25;9.10;;;10.80;99.90;;;;;;5085086;28;20040;-79
2024/01/24 03:51:57;;;;;;;38.20;8.55;;;10.80;99.90;;;;;;5077167;28;20048;-79
2024/01/24 03:54:23;;;;;;;45.00;9.18;;;10.70;99.90;;;;;;5085357;28;20052;-78
2024/01/24 03:56:49;;;;;;;39.42;9.05;;;10.70;99.90;;;;;;5085120;28;20078;-79
2024/01/24 03:59:15;;;;;;;37.05;9.57;;;10.70;99.90;;;;;;5084959;28;20497;-79
2024/01/24 04:01:40;;;;;;;43.10;9.13;;;10.70;99.90;;;;;;5080398;28;20158;-79
2024/01/24 04:04:07;;;;;;;44.83;9.98;;;10.70;99.90;;;;;;5076916;28;20051;-78
2024/01/24 04:06:33;;;;;;;53.78;9.73;;;10.70;99.90;;;;;;5084677;28;20081;-79
2024/01/24 04:08:58;;;;;;;40.70;9.88;;;10.70;99.90;;;;;;5083299;28;20036;-79
2024/01/24 04:11:24;;;;;;;47.28;9.82;;;10.70;99.90;;;;;;5075160;28;20046;-78
2024/01/24 04:13:53;;;;;;;57.83;11.75;;;10.80;99.90;;;;;;5083858;28;20062;-79
2024/01/24 04:16:19;;;;;;;54.25;11.25;;;10.80;99.90;;;;;;5086365;28;20113;-79
2024/01/24 04:18:45;;;;;;;57.38;12.70;;;10.70;99.90;;;;;;5081180;28;20059;-78
2024/01/24 04:21:10;;;;;;;66.20;13.30;;;10.70;99.90;;;;;;5076534;28;20048;-78
2024/01/24 04:23:36;;;;;;;56.45;11.40;;;10.70;99.90;;;;;;5078712;28;20458;-78
2024/01/24 04:26:05;;;;;;;51.13;11.52;;;10.70;99.90;;;;;;5082674;28;20040;-78
2024/01/24 04:28:31;;;;;;;67.40;12.25;;;10.70;99.90;;;;;;5082403;28;20481;-78
2024/01/24 04:30:57;;;;;;;71.97;13.20;;;10.70;99.90;;;;;;5083918;28;20043;-78
2024/01/24 04:33:22;;;;;;;62.03;12.98;;;10.70;99.90;;;;;;5081445;28;20044;-78
2024/01/24 04:35:48;;;;;;;56.28;12.38;;;10.70;99.90;;;;;;5085400;28;20067;-79
2024/01/24 04:38:14;;;;;;;43.78;10.52;;;10.70;99.90;;;;;;5076354;28;20076;-78
2024/01/24 04:40:40;;;;;;;54.17;10.93;;;10.70;99.90;;;;;;5086243;28;20082;-79
2024/01/24 04:43:07;;;;;;;45.92;10.70;;;10.70;99.90;;;;;;5084914;28;20515;-78
2024/01/24 04:45:32;;;;;;;63.05;13.10;;;10.70;99.90;;;;;;5084343;28;20048;-78
2024/01/24 04:47:58;;;;;;;72.85;13.63;;;10.60;99.90;;;;;;5078374;28;20052;-78
2024/01/24 04:50:24;;;;;;;57.08;13.32;;;10.60;99.90;;;;;;5077426;28;20059;-78
2024/01/24 04:52:49;;;;;;;66.75;12.45;;;10.60;99.90;;;;;;5080868;28;20137;-79
2024/01/24 04:55:15;;;;;;;61.47;12.55;;;10.60;99.90;;;;;;5073658;28;20182;-79
2024/01/24 04:57:41;;;;;;;56.83;12.20;;;10.60;99.90;;;;;;5077249;28;20049;-78
2024/01/24 05:00:08;;;;;;;58.85;11.93;;;10.60;99.90;;;;;;5082498;28;20397;-77
2024/01/24 05:02:34;;;;;;;64.05;12.57;;;10.60;99.90;;;;;;5085688;28;20044;-78
2024/01/24 05:04:59;;;;;;;67.00;13.38;;;10.60;99.90;;;;;;5082052;28;20523;-78
2024/01/24 05:07:25;;;;;;;77.35;13.00;;;10.60;99.90;;;;;;5083042;28;20086;-77
2024/01/24 05:09:50;;;;;;;71.60;13.95;;;10.60;99.90;;;;;;5065098;28;20694;-79
2024/01/24 05:12:16;;;;;;;78.20;13.85;;;10.60;99.90;;;;;;5077929;28;20119;-78
2024/01/24 05:14:42;;;;;;;70.55;13.73;;;10.50;99.90;;;;;;5083506;28;20040;-79
2024/01/24 05:17:08;;;;;;;60.28;13.57;;;10.50;99.90;;;;;;5086015;28;20055;-79
2024/01/24 05:19:35;;;;;;;81.57;16.10;;;10.50;99.90;;;;;;5090058;28;20556;-76
2024/01/24 05:22:01;;;;;;;75.00;15.45;;;10.40;99.90;;;;;;5088571;28;20100;-76
2024/01/24 05:24:26;;;;;;;70.32;15.73;;;10.40;99.90;;;;;;5088145;28;20052;-75
2024/01/24 05:26:52;;;;;;;89.95;17.10;;;10.40;99.90;;;;;;5086420;28;20050;-79
2024/01/24 05:29:18;;;;;;;76.20;16.88;;;10.40;99.90;;;;;;5063813;28;20154;-78
2024/01/24 05:31:43;;;;;;;70.75;15.75;;;10.40;99.90;;;;;;5080063;28;20052;-78
2024/01/24 05:34:09;;;;;;;77.55;17.15;;;10.30;99.90;;;;;;5071215;28;20048;-78
2024/01/24 05:36:35;;;;;;;86.32;18.80;;;10.30;99.90;;;;;;5080966;28;20067;-79
2024/01/24 05:39:02;;;;;;;85.10;18.08;;;10.30;99.90;;;;;;5081743;28;20051;-79
2024/01/24 05:41:27;;;;;;;83.15;17.65;;;10.30;99.90;;;;;;5085914;28;20059;-80
2024/01/24 05:43:53;;;;;;;78.18;15.38;;;10.30;99.90;;;;;;5080501;28;20043;-79
2024/01/24 05:46:19;;;;;;;81.20;16.90;;;10.30;99.90;;;;;;5076018;28;20619;-80
2024/01/24 05:48:45;;;;;;;81.97;16.20;;;10.30;99.90;;;;;;5080422;28;20051;-79
2024/01/24 05:51:11;;;;;;;91.57;19.35;;;10.30;99.90;;;;;;5080218;28;20055;-80
2024/01/24 05:53:41;;;;;;;91.28;15.70;;;10.30;99.90;;;;;;5067812;28;20036;-80
2024/01/24 05:56:08;;;;;;;86.78;16.90;;;10.20;99.90;;;;;;5073270;28;20054;-80
2024/01/24 05:58:33;;;;;;;92.63;18.40;;;10.20;99.90;;;;;;5079714;28;20040;-80
2024/01/24 06:00:59;;;;;;;87.90;18.02;;;10.20;99.90;;;;;;5092468;28;20055;-79
2024/01/24 06:03:25;;;;;;;85.82;16.30;;;10.20;99.90;;;;;;5080448;28;20117;-79
2024/01/24 06:05:50;;;;;;;83.32;16.67;;;10.10;99.90;;;;;;5087701;28;20051;-79
2024/01/24 06:08:16;;;;;;;83.63;16.52;;;10.10;99.90;;;;;;5085520;28;20048;-79
2024/01/24 06:10:42;;;;;;;74.53;16.40;;;10.10;99.90;;;;;;5083929;28;20042;-79
2024/01/24 06:13:10;;;;;;;86.00;18.52;;;10.00;99.90;;;;;;5077028;28;20084;-79
2024/01/24 06:15:36;;;;;;;;;;;10.00;99.90;;;;;;5083825;28;20451;-79
2024/01/24 06:18:02;;;;;;;78.70;17.27;;;9.90;99.90;;;;;;5078625;28;19927;-79
2024/01/24 06:20:28;;;;;;;82.72;16.60;;;9.90;99.90;;;;;;5079247;28;20515;-79
2024/01/24 06:22:53;;;;;;;79.00;17.15;;;9.90;99.90;;;;;;5086819;28;20040;-79
2024/01/24 06:25:19;;;;;;;96.53;20.20;;;9.90;99.90;;;;;;5064202;28;20044;-80
2024/01/24 06:27:45;;;;;;;99.03;18.58;;;9.90;99.90;;;;;;5080971;28;20047;-80
2024/01/24 06:30:11;;;;;;;100.35;19.67;;;9.80;99.90;;;;;;5077667;28;20131;-80
2024/01/24 06:32:37;;;;;;;96.57;17.83;;;9.80;99.90;;;;;;5086546;28;20036;-80
2024/01/24 06:35:03;;;;;;;92.15;18.08;;;9.80;99.90;;;;;;5080812;28;20097;-79
2024/01/24 06:37:28;;;;;;;92.82;17.42;;;9.80;99.90;;;;;;5072857;28;20080;-80
2024/01/24 06:39:55;;;;;;;94.03;18.55;;;9.80;99.90;;;;;;5086064;28;20119;-79
2024/01/24 06:42:20;;;;;;;111.70;20.48;;;9.80;99.90;;;;;;5080822;28;20046;-79
2024/01/24 06:44:46;;;;;;;92.03;17.88;;;9.80;99.90;;;;;;5083102;28;20036;-80
2024/01/24 06:47:12;;;;;;;119.47;20.00;;;9.70;99.90;;;;;;5070260;28;20089;-80
2024/01/24 06:49:37;;;;;;;102.60;18.95;;;9.70;99.90;;;;;;5086106;28;20064;-79
2024/01/24 06:52:03;;;;;;;91.82;17.45;;;9.70;99.90;;;;;;5070065;28;20055;-79
2024/01/24 06:54:29;;;;;;;88.45;20.83;;;9.80;99.90;;;;;;5076917;28;20060;-79
2024/01/24 06:56:54;;;;;;;81.75;19.02;;;9.70;99.90;;;;;;5083973;28;20105;-79
2024/01/24 06:59:20;;;;;;;96.75;20.88;;;9.70;99.90;;;;;;5057192;28;20070;-79
2024/01/24 07:01:46;;;;;;;82.78;18.13;;;9.70;99.90;;;;;;5072280;28;20055;-79
2024/01/24 07:04:11;;;;;;;99.70;18.60;;;9.70;99.90;;;;;;5073584;28;20708;-79
2024/01/24 07:06:37;;;;;;;89.28;18.10;;;9.70;99.90;;;;;;5082821;28;20055;-80
2024/01/24 07:09:02;;;;;;;75.28;18.70;;;9.70;99.90;;;;;;5085482;28;20040;-79
2024/01/24 07:11:28;;;;;;;92.03;19.92;;;9.70;99.90;;;;;;5079834;28;20044;-80
2024/01/24 07:13:54;;;;;;;82.80;18.48;;;9.70;99.90;;;;;;5085437;28;20138;-79
2024/01/24 07:16:20;;;;;;;106.95;19.92;;;9.70;99.90;;;;;;5083559;28;20063;-80
2024/01/24 07:18:45;;;;;;;112.32;19.77;;;9.70;99.90;;;;;;5067716;28;20421;-79
2024/01/24 07:21:11;;;;;;;84.28;19.65;;;9.70;99.90;;;;;;5075818;28;20037;-79
2024/01/24 07:23:36;;;;;;;95.93;17.52;;;9.70;99.90;;;;;;5089590;28;20104;-79
2024/01/24 07:26:02;;;;;;;105.55;21.50;;;9.70;99.90;;;;;;5085336;28;20044;-80
2024/01/24 07:28:29;;;;;;;93.47;19.40;;;9.70;99.90;;;;;;5084937;28;20055;-80
2024/01/24 07:30:55;;;;;;;104.70;22.02;;;9.60;99.90;;;;;;5085490;28;20119;-79
2024/01/24 07:33:21;;;;;;;109.07;21.55;;;9.70;99.90;;;;;;5079229;28;20044;-78
2024/01/24 07:35:47;;;;;;;104.13;22.35;;;9.70;99.90;;;;;;5080787;28;20048;-81
2024/01/24 07:38:13;;;;;;;103.85;24.05;;;9.70;99.90;;;;;;5080549;28;20040;-80
2024/01/24 07:40:38;;;;;;;103.15;21.77;;;9.70;99.90;;;;;;5079574;28;20092;-79
2024/01/24 07:43:04;;;;;;;97.25;21.48;;;9.70;99.90;;;;;;5080547;28;20446;-79
2024/01/24 07:45:31;;;;;;;92.50;21.90;;;9.70;99.90;;;;;;5071662;28;20044;-79
2024/01/24 07:47:56;;;;;;;114.82;22.55;;;9.70;99.90;;;;;;5074939;28;20087;-79
2024/01/24 07:50:22;;;;;;;114.45;24.27;;;9.60;99.90;;;;;;5078533;28;20079;-79
2024/01/24 07:52:48;;;;;;;94.93;21.83;;;9.60;99.90;;;;;;5078874;28;20079;-79
2024/01/24 07:55:15;;;;;;;101.03;21.13;;;9.60;99.90;;;;;;5084373;28;20063;-79
2024/01/24 07:57:40;;;;;;;129.95;23.05;;;9.60;99.90;;;;;;5077673;28;20051;-79
2024/01/24 08:00:07;;;;;;;107.50;21.20;;;9.60;99.90;;;;;;5078151;28;20056;-79
2024/01/24 08:02:32;;;;;;;99.53;20.65;;;9.60;99.90;;;;;;5073830;28;20040;-79
2024/01/24 08:05:00;;;;;;;95.97;21.20;;;9.60;99.90;;;;;;5079144;28;20182;-79
2024/01/24 08:07:26;;;;;;;105.18;20.83;;;9.60;99.90;;;;;;5079776;28;20052;-79
2024/01/24 08:09:52;;;;;;;104.93;22.23;;;9.60;99.90;;;;;;5077456;28;20102;-79
2024/01/24 08:12:18;;;;;;;104.65;21.92;;;9.60;99.90;;;;;;5064061;28;20093;-79
2024/01/24 08:14:44;;;;;;;99.20;21.60;;;9.60;99.90;;;;;;5073800;28;20049;-79
2024/01/24 08:17:13;;;;;;;92.80;22.60;;;9.60;99.90;;;;;;5080180;28;20122;-79
2024/01/24 08:19:39;;;;;;;117.28;23.33;;;9.50;99.90;;;;;;5071663;28;20119;-78
2024/01/24 08:22:05;;;;;;;107.85;21.42;;;9.50;99.90;;;;;;5079498;28;20124;-79
2024/01/24 08:24:31;;;;;;;94.80;20.77;;;9.50;99.90;;;;;;5083918;28;20058;-79
2024/01/24 08:26:57;;;;;;;123.68;21.15;;;9.50;99.90;;;;;;5076629;28;20044;-79
2024/01/24 08:29:25;;;;;;;85.90;20.58;;;9.60;99.90;;;;;;5078298;28;20057;-79
2024/01/24 08:31:53;;;;;;;109.32;22.65;;;9.50;99.90;;;;;;5075541;28;20056;-79
2024/01/24 08:34:19;;;;;;;103.13;23.08;;;9.50;99.90;;;;;;5057158;28;20053;-79
2024/01/24 08:36:44;;;;;;;99.63;20.23;;;9.50;99.90;;;;;;5078950;28;20041;-79
2024/01/24 08:39:10;;;;;;;109.65;21.77;;;9.60;99.90;;;;;;5082553;28;20136;-78
2024/01/24 08:41:36;;;;;;;109.95;22.20;;;9.50;99.90;;;;;;5076367;28;20409;-78
2024/01/24 08:44:04;;;;;;;91.55;21.23;;;9.60;99.90;;;;;;5086086;28;20298;-79
2024/01/24 08:46:30;;;;;;;101.22;21.17;;;9.60;99.90;;;;;;5088739;28;20044;-79
2024/01/24 08:48:56;;;;;;;95.82;20.58;;;9.60;99.90;;;;;;5080873;28;20048;-78
2024/01/24 08:51:24;;;;;;;98.15;22.42;;;9.60;99.90;;;;;;5080040;28;20473;-78
2024/01/24 08:53:50;;;;;;;105.70;22.70;;;9.60;99.90;;;;;;5076844;28;20063;-78
2024/01/24 08:56:15;;;;;;;119.32;24.50;;;9.60;99.90;;;;;;5082747;28;20061;-78
2024/01/24 08:58:42;;;;;;;110.90;21.00;;;9.50;99.90;;;;;;5082632;28;20056;-78
2024/01/24 09:01:08;;;;;;;117.25;23.55;;;9.50;99.90;;;;;;5081899;28;20052;-78
2024/01/24 09:03:34;;;;;;;134.70;24.25;;;9.60;99.90;;;;;;5085285;28;20063;-78
2024/01/24 09:05:59;;;;;;;121.32;23.42;;;9.60;99.90;;;;;;5077294;28;20044;-78
2024/01/24 09:08:25;;;;;;;89.80;21.95;;;9.60;99.90;;;;;;5083686;28;20086;-78
2024/01/24 09:10:52;;;;;;;96.00;23.02;;;9.60;99.90;;;;;;5070436;28;20048;-77
2024/01/24 09:13:21;;;;;;;127.90;25.15;;;9.70;99.90;;;;;;5084909;28;20840;-78
2024/01/24 09:15:47;;;;;;;111.57;22.55;;;9.70;99.90;;;;;;5080881;28;20078;-78
2024/01/24 09:18:17;;;;;;;106.95;23.95;;;9.70;99.90;;;;;;5075145;28;20040;-78
2024/01/24 09:20:43;;;;;;;110.15;25.85;;;9.70;99.90;;;;;;5089305;28;20048;-78
2024/01/24 09:23:09;;;;;;;97.32;21.73;;;9.80;99.90;;;;;;5086446;28;20056;-77
2024/01/24 09:25:35;;;;;;;137.93;24.63;;;9.70;99.90;;;;;;5101134;28;20094;-78
2024/01/24 09:28:03;;;;;;;129.48;23.60;;;9.80;99.90;;;;;;5086667;28;20052;-78
2024/01/24 09:30:28;;;;;;;109.35;22.42;;;9.80;99.90;;;;;;5082144;28;20044;-77
2024/01/24 09:32:55;;;;;;;138.20;25.42;;;9.80;99.90;;;;;;5085370;28;20055;-77
2024/01/24 09:35:21;;;;;;;98.07;20.80;;;9.80;99.90;;;;;;5076566;28;20097;-78
2024/01/24 09:37:46;;;;;;;110.05;23.38;;;9.80;99.90;;;;;;5078331;28;20044;-78
2024/01/24 09:40:17;;;;;;;124.93;24.13;;;9.80;99.90;;;;;;5086437;28;20086;-78
2024/01/24 09:42:44;;;;;;;135.90;23.33;;;9.90;99.90;;;;;;5086021;28;20044;-78
2024/01/24 09:45:10;;;;;;;99.75;20.48;;;9.90;99.90;;;;;;5078709;28;20422;-79
2024/01/24 09:47:37;;;;;;;105.45;22.35;;;9.90;99.90;;;;;;5087737;28;20048;-79
2024/01/24 09:50:04;;;;;;;86.68;20.52;;;9.90;99.90;;;;;;5086067;28;20047;-79
2024/01/24 09:52:34;;;;;;;90.40;21.08;;;9.90;99.90;;;;;;5084812;28;20086;-78
2024/01/24 09:55:04;;;;;;;111.00;20.42;;;9.90;99.90;;;;;;5083048;28;20161;-78
2024/01/24 09:57:32;;;;;;;100.93;20.90;;;10.00;99.90;;;;;;5087407;28;20096;-78
2024/01/24 09:59:58;;;;;;;105.63;21.73;;;10.00;99.90;;;;;;5086207;28;20048;-78
2024/01/24 10:02:26;;;;;;;99.57;20.45;;;10.10;99.90;;;;;;5080890;28;20509;-78
2024/01/24 10:04:52;;;;;;;85.18;19.92;;;10.10;99.90;;;;;;5086743;28;20059;-78
2024/01/24 10:07:19;;;;;;;89.85;19.33;;;10.20;99.90;;;;;;5084152;28;20113;-78
2024/01/24 10:09:46;;;;;;;92.78;19.77;;;10.20;99.90;;;;;;5082581;28;20132;-78
2024/01/24 10:12:12;;;;;;;98.25;20.58;;;10.30;99.90;;;;;;5081581;28;20874;-78
2024/01/24 10:14:40;;;;;;;93.88;18.08;;;10.30;99.90;;;;;;5086560;28;20036;-78
2024/01/24 10:17:09;;;;;;;;;;;10.40;99.90;;;;;;5082056;28;20097;-78
2024/01/24 10:19:34;;;;;;;98.90;18.50;;;10.40;99.90;;;;;;5082454;28;19955;-79
2024/01/24 10:22:00;;;;;;;88.40;18.73;;;10.50;99.90;;;;;;5083534;28;20528;-78
2024/01/24 10:24:27;;;;;;;84.13;18.55;;;10.60;99.90;;;;;;5078536;28;20048;-78
2024/01/24 10:26:53;;;;;;;70.85;17.63;;;10.60;99.90;;;;;;5086615;28;20044;-78
2024/01/24 10:29:19;;;;;;;89.00;18.90;;;10.60;99.90;;;;;;5080358;28;20040;-78
2024/01/24 10:31:45;;;;;;;94.50;18.33;;;10.70;99.90;;;;;;5086860;28;20066;-78
2024/01/24 10:34:10;;;;;;;72.93;17.67;;;10.70;99.90;;;;;;5084661;28;20040;-78
2024/01/24 10:36:38;;;;;;;86.82;17.90;;;10.70;99.90;;;;;;5086173;28;20060;-78
2024/01/24 10:39:09;;;;;;;83.10;15.80;;;10.70;99.90;;;;;;5086944;28;20050;-78
2024/01/24 10:41:42;;;;;;;91.40;16.92;;;10.70;99.90;;;;;;5073335;28;20040;-78
2024/01/24 10:44:09;;;;;;;81.80;16.23;;;10.80;99.90;;;;;;5083706;28;20516;-78
2024/01/24 10:46:36;;;;;;;91.28;18.20;;;10.80;99.90;;;;;;5085136;28;20392;-78
2024/01/24 10:49:03;;;;;;;75.05;19.10;;;10.90;99.90;;;;;;5080648;28;20119;-78
2024/01/24 10:51:31;;;;;;;79.30;16.80;;;10.90;99.90;;;;;;5083466;28;20040;-78
2024/01/24 10:53:57;;;;;;;96.30;17.73;;;10.90;99.90;;;;;;5086881;28;20040;-79
2024/01/24 10:56:24;;;;;;;73.05;17.08;;;11.00;99.90;;;;;;5086239;28;20574;-78
2024/01/24 10:58:49;;;;;;;83.85;17.75;;;11.00;99.90;;;;;;5085769;28;20066;-78
2024/01/24 11:01:15;;;;;;;94.35;17.25;;;11.10;99.90;;;;;;5085038;28;20165;-78
2024/01/24 11:03:43;;;;;;;72.60;16.83;;;11.10;99.90;;;;;;5086022;28;20402;-79
2024/01/24 11:06:14;;;;;;;71.07;14.65;;;11.10;99.90;;;;;;5086133;28;20394;-78
2024/01/24 11:08:56;;;;;;;84.22;17.45;;;11.10;99.90;;;;;;5080566;28;20047;-78
2024/01/24 11:11:23;;;;;;;68.90;15.35;;;11.20;99.90;;;;;;5086157;28;20048;-76
2024/01/24 11:13:52;;;;;;;87.15;15.68;;;11.20;99.90;;;;;;5075977;28;20106;-75
2024/01/24 11:16:31;;;;;;;74.15;15.50;;;11.10;99.90;;;;;;5085073;28;20040;-78
2024/01/24 11:19:22;;;;;;;67.18;16.10;;;11.10;99.90;;;;;;5081133;28;20584;-78
2024/01/24 11:21:49;;;;;;;70.30;17.45;;;11.10;99.90;;;;;;5082209;28;20131;-78
2024/01/24 11:24:40;;;;;;;62.00;15.45;;;11.00;99.90;;;;;;5078105;28;20535;-78
2024/01/24 11:27:28;;;;;;;73.03;15.13;;;11.00;99.90;;;;;;5081871;28;20040;-78
2024/01/24 11:29:57;;;;;;;74.10;16.33;;;11.00;99.90;;;;;;5078225;28;20094;-78
2024/01/24 11:32:44;;;;;;;60.22;14.68;;;11.00;99.90;;;;;;5076036;28;20044;-78
2024/01/24 11:35:31;;;;;;;90.50;16.73;;;10.90;99.90;;;;;;5069563;28;20052;-78
2024/01/24 11:38:04;;;;;;;70.35;15.73;;;10.90;99.90;;;;;;5074814;28;20067;-78
2024/01/24 11:40:36;;;;;;;85.75;17.70;;;10.90;99.90;;;;;;5080412;28;20100;-78
2024/01/24 11:43:02;;;;;;;76.15;16.17;;;10.80;99.90;;;;;;5076304;28;20051;-78
2024/01/24 11:45:27;;;;;;;82.47;15.60;;;10.80;99.90;;;;;;5075138;28;20035;-79
2024/01/24 11:47:53;;;;;;;75.90;14.35;;;10.80;99.90;;;;;;5089188;28;20048;-79
2024/01/24 11:50:19;;;;;;;69.38;15.35;;;10.70;99.90;;;;;;5081046;28;20046;-78
2024/01/24 11:52:45;;;;;;;62.72;14.25;;;10.70;99.90;;;;;;5078297;28;20048;-78
2024/01/24 11:55:12;;;;;;;81.47;17.55;;;10.70;99.90;;;;;;5077243;28;20080;-78
2024/01/24 11:57:37;;;;;;;66.50;16.05;;;10.60;99.90;;;;;;5084652;28;20431;-78
2024/01/24 12:00:08;;;;;;;69.55;14.73;;;10.60;99.90;;;;;;5075746;28;20036;-78
2024/01/24 12:02:35;;;;;;;77.25;16.13;;;10.60;99.90;;;;;;5084417;28;20351;-78
2024/01/24 12:05:01;;;;;;;58.83;14.85;;;10.60;99.90;;;;;;5072236;28;20084;-78
2024/01/24 12:07:27;;;;;;;79.68;17.35;;;10.60;99.90;;;;;;5073882;28;20060;-77
2024/01/24 12:09:53;;;;;;;70.85;14.63;;;10.60;99.90;;;;;;5079349;28;20059;-78
2024/01/24 12:12:19;;;;;;;74.20;17.70;;;10.60;99.90;;;;;;5074530;28;20056;-78
2024/01/24 12:14:45;;;;;;;91.97;15.98;;;10.60;99.90;;;;;;5085075;28;20057;-78
2024/01/24 12:17:12;;;;;;;79.80;16.40;;;10.60;99.90;;;;;;5080963;28;20519;-78
2024/01/24 12:19:43;;;;;;;69.90;14.57;;;10.60;99.90;;;;;;5088110;28;20083;-77
2024/01/24 12:22:09;;;;;;;76.00;15.23;;;10.60;99.90;;;;;;5081280;28;20078;-78
2024/01/24 12:24:42;;;;;;;75.88;17.05;;;10.60;99.90;;;;;;5089063;28;20052;-78
2024/01/24 12:27:08;;;;;;;67.22;16.38;;;10.60;99.90;;;;;;5089525;28;20044;-77